createdAt,value
2019-01-23T00:00:46.678Z,45.50
2019-01-23T00:03:15.334Z,47.80
2019-01-23T00:05:43.928Z,46.63
2019-01-23T00:08:12.538Z,49.33
2019-01-23T00:10:41.129Z,48.07
2019-01-23T00:13:09.708Z,45.07
2019-01-23T00:15:38.297Z,41.23
2019-01-23T00:18:07.079Z,40.47
2019-01-23T00:20:35.656Z,40.70
2019-01-23T00:23:04.263Z,38.50
2019-01-23T00:25:32.844Z,37.20
2019-01-23T00:28:01.423Z,36.97
2019-01-23T00:30:30.023Z,34.03
2019-01-23T00:32:58.544Z,33.67
2019-01-23T00:35:27.123Z,33.23
2019-01-23T00:37:55.723Z,32.33
2019-01-23T00:40:24.313Z,32.70
2019-01-23T00:42:52.943Z,33.53
2019-01-23T00:45:21.551Z,32.77
2019-01-23T00:47:50.114Z,31.67
2019-01-23T00:50:18.698Z,30.53
2019-01-23T00:52:47.314Z,30.20
2019-01-23T00:55:15.901Z,32.20
2019-01-23T00:57:44.488Z,30.50
2019-01-23T01:00:14.801Z,30.60
2019-01-23T01:02:43.383Z,30.47
2019-01-23T01:05:12.015Z,29.67
2019-01-23T01:07:40.644Z,30.40
2019-01-23T01:10:09.852Z,30.00
2019-01-23T01:12:38.425Z,30.73
2019-01-23T01:15:13.088Z,31.63
2019-01-23T01:17:37.633Z,30.10
2019-01-23T01:20:07.199Z,31.50
2019-01-23T01:22:35.814Z,30.07
2019-01-23T01:25:05.327Z,29.93
2019-01-23T01:27:33.922Z,30.80
2019-01-23T01:30:02.519Z,31.07
2019-01-23T01:32:31.094Z,32.57
2019-01-23T01:34:59.699Z,31.33
2019-01-23T01:37:28.303Z,31.43
2019-01-23T01:39:57.389Z,33.87
2019-01-23T01:42:26.594Z,33.80
2019-01-23T01:44:55.813Z,35.17
2019-01-23T01:47:24.444Z,36.67
2019-01-23T01:49:53.015Z,35.97
2019-01-23T01:52:21.619Z,36.77
2019-01-23T01:54:50.201Z,35.37
2019-01-23T01:57:18.775Z,34.97
2019-01-23T01:59:47.383Z,34.83
2019-01-23T02:02:15.983Z,36.03
2019-01-23T02:04:44.642Z,33.47
2019-01-23T02:07:13.242Z,31.23
2019-01-23T02:09:45.463Z,32.17
2019-01-23T02:12:12.118Z,32.23
2019-01-23T02:14:40.723Z,33.63
2019-01-23T02:17:09.295Z,30.47
2019-01-23T02:19:37.867Z,30.63
2019-01-23T02:22:06.470Z,31.07
2019-01-23T02:24:35.052Z,31.43
2019-01-23T02:27:03.694Z,31.57
2019-01-23T02:29:32.292Z,29.67
2019-01-23T02:32:00.936Z,32.00
2019-01-23T02:34:29.587Z,31.43
2019-01-23T02:36:58.180Z,29.60
2019-01-23T02:39:26.828Z,30.07
2019-01-23T02:41:55.507Z,31.97
2019-01-23T02:44:24.147Z,34.03
2019-01-23T02:46:52.729Z,32.17
2019-01-23T02:49:21.311Z,30.90
2019-01-23T02:51:49.912Z,31.87
2019-01-23T02:54:18.560Z,30.67
2019-01-23T02:56:47.156Z,32.27
2019-01-23T02:59:17.449Z,29.50
2019-01-23T03:01:46.059Z,30.33
2019-01-23T03:04:14.640Z,29.70
2019-01-23T03:06:43.231Z,28.53
2019-01-23T03:09:11.893Z,29.67
2019-01-23T03:11:40.472Z,29.70
2019-01-23T03:14:09.074Z,28.23
2019-01-23T03:16:37.643Z,28.00
2019-01-23T03:19:06.220Z,27.30
2019-01-23T03:21:34.842Z,25.13
2019-01-23T03:24:03.415Z,25.23
2019-01-23T03:26:32.015Z,24.93
2019-01-23T03:29:00.590Z,24.67
2019-01-23T03:31:29.190Z,25.50
2019-01-23T03:33:57.861Z,24.83
2019-01-23T03:36:26.432Z,25.70
2019-01-23T03:38:55.009Z,26.13
2019-01-23T03:41:23.615Z,24.83
2019-01-23T03:43:52.201Z,25.40
2019-01-23T03:46:20.819Z,26.50
2019-01-23T03:48:49.408Z,24.90
2019-01-23T03:51:18.051Z,28.50
2019-01-23T03:53:46.623Z,25.00
2019-01-23T03:56:15.228Z,27.60
2019-01-23T03:58:43.882Z,25.63
2019-01-23T04:01:12.380Z,27.47
2019-01-23T04:03:41.059Z,27.93
2019-01-23T04:06:09.635Z,25.73
2019-01-23T04:08:38.222Z,27.07
2019-01-23T04:11:06.906Z,27.93
2019-01-23T04:13:35.451Z,26.17
2019-01-23T04:16:04.115Z,27.87
2019-01-23T04:18:32.694Z,26.50
2019-01-23T04:21:01.235Z,26.03
2019-01-23T04:23:29.783Z,27.77
2019-01-23T04:25:58.362Z,26.10
2019-01-23T04:28:26.912Z,27.20
2019-01-23T04:30:55.470Z,27.30
2019-01-23T04:33:24.164Z,27.53
2019-01-23T04:35:52.693Z,28.67
2019-01-23T04:38:21.240Z,28.87
2019-01-23T04:40:49.814Z,29.50
2019-01-23T04:43:18.361Z,30.00
2019-01-23T04:45:46.926Z,30.90
2019-01-23T04:48:15.506Z,30.90
2019-01-23T04:51:03.085Z,30.13
2019-01-23T04:53:38.498Z,31.83
2019-01-23T04:56:07.057Z,29.03
2019-01-23T04:58:35.611Z,26.87
2019-01-23T05:01:04.197Z,28.50
2019-01-23T05:03:32.754Z,26.47
2019-01-23T05:06:01.316Z,26.87
2019-01-23T05:08:29.874Z,25.83
2019-01-23T05:10:58.447Z,26.17
2019-01-23T05:13:26.998Z,28.20
2019-01-23T05:15:55.555Z,30.20
2019-01-23T05:18:24.116Z,32.07
2019-01-23T05:20:52.665Z,30.83
2019-01-23T05:23:21.215Z,30.87
2019-01-23T05:25:49.789Z,29.67
2019-01-23T05:28:18.350Z,28.47
2019-01-23T05:30:46.911Z,30.17
2019-01-23T05:33:15.497Z,27.67
2019-01-23T05:35:44.046Z,30.10
2019-01-23T05:38:12.607Z,30.37
2019-01-23T05:40:41.191Z,32.23
2019-01-23T05:43:09.770Z,31.07
2019-01-23T05:45:39.865Z,27.50
2019-01-23T05:48:08.447Z,27.93
2019-01-23T05:50:36.974Z,27.33
2019-01-23T05:53:05.525Z,26.07
2019-01-23T05:55:34.107Z,28.87
2019-01-23T05:58:02.666Z,27.50
2019-01-23T06:00:31.210Z,28.27
2019-01-23T06:02:59.791Z,28.17
2019-01-23T06:05:28.339Z,28.53
2019-01-23T06:07:56.879Z,28.27
2019-01-23T06:10:25.465Z,26.93
2019-01-23T06:12:54.012Z,27.10
2019-01-23T06:15:22.594Z,25.90
2019-01-23T06:17:51.183Z,27.40
2019-01-23T06:20:19.818Z,26.13
2019-01-23T06:22:48.387Z,26.77
2019-01-23T06:25:16.961Z,26.43
2019-01-23T06:27:45.504Z,27.33
2019-01-23T06:30:15.180Z,27.07
2019-01-23T06:32:43.781Z,28.93
2019-01-23T06:35:12.884Z,29.47
2019-01-23T06:37:41.861Z,30.43
2019-01-23T06:40:11.523Z,29.73
2019-01-23T06:42:40.537Z,30.47
2019-01-23T06:45:11.352Z,30.30
2019-01-23T06:47:40.458Z,32.53
2019-01-23T06:50:10.607Z,33.53
2019-01-23T06:52:39.147Z,32.83
2019-01-23T06:55:08.352Z,33.30
2019-01-23T06:57:37.086Z,34.33
2019-01-23T07:00:06.393Z,34.77
2019-01-23T07:02:34.979Z,33.37
2019-01-23T07:05:03.569Z,35.80
2019-01-23T07:07:32.139Z,34.63
2019-01-23T07:10:00.722Z,36.50
2019-01-23T07:12:29.307Z,36.43
2019-01-23T07:14:57.870Z,37.47
2019-01-23T07:17:26.448Z,35.73
2019-01-23T07:19:54.989Z,36.10
2019-01-23T07:22:23.553Z,34.13
2019-01-23T07:24:52.124Z,35.27
2019-01-23T07:27:20.679Z,36.47
2019-01-23T07:29:49.230Z,36.97
2019-01-23T07:32:17.826Z,35.63
2019-01-23T07:34:46.375Z,37.47
2019-01-23T07:37:14.926Z,35.77
2019-01-23T07:39:43.512Z,38.13
2019-01-23T07:42:12.061Z,39.10
2019-01-23T07:44:40.655Z,37.83
2019-01-23T07:47:09.230Z,36.63
2019-01-23T07:49:37.780Z,38.47
2019-01-23T07:52:06.331Z,36.10
2019-01-23T07:54:34.907Z,37.90
2019-01-23T07:57:03.453Z,37.90
2019-01-23T07:59:32.006Z,36.90
2019-01-23T08:02:00.586Z,38.13
2019-01-23T08:04:29.127Z,37.47
2019-01-23T08:06:57.673Z,38.27
2019-01-23T08:09:26.237Z,37.37
2019-01-23T08:11:54.827Z,38.97
2019-01-23T08:14:23.374Z,38.97
2019-01-23T08:16:51.948Z,40.93
2019-01-23T08:19:20.491Z,40.37
2019-01-23T08:21:49.043Z,39.23
2019-01-23T08:24:17.622Z,39.57
2019-01-23T08:26:47.277Z,41.17
2019-01-23T08:29:15.846Z,39.90
2019-01-23T08:31:44.392Z,39.30
2019-01-23T08:34:12.979Z,39.03
2019-01-23T08:36:41.522Z,40.37
2019-01-23T08:39:10.091Z,40.00
2019-01-23T08:41:38.643Z,39.63
2019-01-23T08:44:07.187Z,40.37
2019-01-23T08:46:35.770Z,38.90
2019-01-23T08:49:04.316Z,39.97
2019-01-23T08:51:32.873Z,40.07
2019-01-23T08:54:01.455Z,40.13
2019-01-23T08:56:30.006Z,42.70
2019-01-23T08:58:58.571Z,39.87
2019-01-23T09:01:27.130Z,38.57
2019-01-23T09:03:55.684Z,39.47
2019-01-23T09:06:24.245Z,38.77
2019-01-23T09:08:52.833Z,38.53
2019-01-23T09:11:21.410Z,40.33
2019-01-23T09:13:50.030Z,39.00
2019-01-23T09:16:18.632Z,38.67
2019-01-23T09:18:47.194Z,40.17
2019-01-23T09:21:15.729Z,41.57
2019-01-23T09:23:44.306Z,41.83
2019-01-23T09:26:12.854Z,38.60
2019-01-23T09:28:41.411Z,40.23
2019-01-23T09:31:31.078Z,42.20
2019-01-23T09:34:22.547Z,40.80
2019-01-23T09:36:58.992Z,39.27
2019-01-23T09:39:37.355Z,40.43
2019-01-23T09:42:23.835Z,37.70
2019-01-23T09:45:17.595Z,40.50
2019-01-23T09:47:52.366Z,38.97
2019-01-23T09:50:42.859Z,38.83
2019-01-23T09:53:25.550Z,40.67
2019-01-23T09:55:54.194Z,38.10
2019-01-23T09:58:22.746Z,39.23
2019-01-23T10:00:51.370Z,38.90
2019-01-23T10:03:23.083Z,39.87
2019-01-23T10:05:50.242Z,39.67
2019-01-23T10:08:18.802Z,39.40
2019-01-23T10:10:47.395Z,38.63
2019-01-23T10:13:15.990Z,38.93
2019-01-23T10:15:55.239Z,39.37
2019-01-23T10:18:23.870Z,38.40
2019-01-23T10:20:52.420Z,38.83
2019-01-23T10:23:21.091Z,40.77
2019-01-23T10:25:49.660Z,40.27
2019-01-23T10:28:18.201Z,38.50
2019-01-23T10:30:46.778Z,38.40
2019-01-23T10:33:15.338Z,38.70
2019-01-23T10:35:43.884Z,39.00
2019-01-23T10:38:12.458Z,38.13
2019-01-23T10:40:41.007Z,40.70
2019-01-23T10:43:09.567Z,37.97
2019-01-23T10:45:38.255Z,40.57
2019-01-23T10:48:07.035Z,41.33
2019-01-23T10:50:35.646Z,37.30
2019-01-23T10:53:04.209Z,41.00
2019-01-23T10:55:32.762Z,39.57
2019-01-23T10:58:01.323Z,38.90
2019-01-23T11:00:29.979Z,39.73
2019-01-23T11:02:58.857Z,41.30
2019-01-23T11:05:27.454Z,39.73
2019-01-23T11:07:56.034Z,42.27
2019-01-23T11:10:24.585Z,40.30
2019-01-23T11:12:53.162Z,40.13
2019-01-23T11:15:21.758Z,41.20
2019-01-23T11:17:50.303Z,40.00
2019-01-23T11:20:19.042Z,38.67
2019-01-23T11:22:47.627Z,38.13
2019-01-23T11:25:16.190Z,38.93
2019-01-23T11:27:44.796Z,39.90
2019-01-23T11:30:14.869Z,40.30
2019-01-23T11:32:43.413Z,38.47
2019-01-23T11:35:11.958Z,38.70
2019-01-23T11:37:40.517Z,37.97
2019-01-23T11:40:11.074Z,38.40
2019-01-23T11:42:39.658Z,36.17
2019-01-23T11:45:08.587Z,37.70
2019-01-23T11:47:37.155Z,34.57
2019-01-23T11:50:06.070Z,34.33
2019-01-23T11:52:34.646Z,35.80
2019-01-23T11:55:03.210Z,32.80
2019-01-23T11:57:31.770Z,33.30
2019-01-23T12:00:00.367Z,33.50
2019-01-23T12:02:31.004Z,30.63
2019-01-23T12:05:00.203Z,30.00
2019-01-23T12:07:29.330Z,32.40
2019-01-23T12:09:58.394Z,27.53
2019-01-23T12:12:27.493Z,26.63
2019-01-23T12:14:56.571Z,28.47
2019-01-23T12:17:25.700Z,28.37
2019-01-23T12:19:54.786Z,27.37
2019-01-23T12:22:23.856Z,23.73
2019-01-23T12:24:52.925Z,19.33
2019-01-23T12:27:22.104Z,21.90
2019-01-23T12:29:51.167Z,17.93
2019-01-23T12:32:20.259Z,18.13
2019-01-23T12:34:49.399Z,17.10
2019-01-23T12:37:18.466Z,16.97
2019-01-23T12:39:47.522Z,20.10
2019-01-23T12:42:16.602Z,20.10
2019-01-23T12:44:45.670Z,21.13
2019-01-23T12:47:14.695Z,21.00
2019-01-23T12:49:43.767Z,23.30
2019-01-23T12:52:12.850Z,25.03
2019-01-23T12:54:41.911Z,27.20
2019-01-23T12:57:10.925Z,28.93
2019-01-23T12:59:40.147Z,27.50
2019-01-23T13:02:09.832Z,28.30
2019-01-23T13:04:39.031Z,28.53
2019-01-23T13:07:08.070Z,28.67
2019-01-23T13:09:37.174Z,29.23
2019-01-23T13:12:06.150Z,30.67
2019-01-23T13:14:35.166Z,31.53
2019-01-23T13:17:04.279Z,29.77
2019-01-23T13:19:33.399Z,28.33
2019-01-23T13:22:02.503Z,29.47
2019-01-23T13:24:31.590Z,28.80
2019-01-23T13:27:00.683Z,30.33
2019-01-23T13:29:29.774Z,31.13
2019-01-23T13:31:58.857Z,30.23
2019-01-23T13:34:27.934Z,29.40
2019-01-23T13:36:57.004Z,29.73
2019-01-23T13:39:26.063Z,30.03
2019-01-23T13:41:55.166Z,29.23
2019-01-23T13:44:24.251Z,30.43
2019-01-23T13:46:53.319Z,27.93
2019-01-23T13:49:22.495Z,27.97
2019-01-23T13:51:51.479Z,28.80
2019-01-23T13:54:20.555Z,28.10
2019-01-23T13:56:49.659Z,28.87
2019-01-23T13:59:18.716Z,29.00
2019-01-23T14:01:47.744Z,29.07
2019-01-23T14:04:16.830Z,30.37
2019-01-23T14:06:45.905Z,28.67
2019-01-23T14:09:14.978Z,29.27
2019-01-23T14:11:44.102Z,29.50
2019-01-23T14:14:13.198Z,30.10
2019-01-23T14:16:42.294Z,29.60
2019-01-23T14:19:11.381Z,28.83
2019-01-23T14:21:40.479Z,30.37
2019-01-23T14:24:09.553Z,28.33
2019-01-23T14:26:38.647Z,29.40
2019-01-23T14:29:07.207Z,29.60
2019-01-23T14:31:35.764Z,31.10
2019-01-23T14:34:04.380Z,31.87
2019-01-23T14:36:32.940Z,31.17
2019-01-23T14:39:01.492Z,31.43
2019-01-23T14:41:30.315Z,31.13
2019-01-23T14:43:58.915Z,31.73
2019-01-23T14:46:27.555Z,33.03
2019-01-23T14:48:56.261Z,33.87
2019-01-23T14:51:24.830Z,32.37
2019-01-23T14:53:53.446Z,30.07
2019-01-23T14:56:22.086Z,34.43
2019-01-23T14:58:50.705Z,34.03
2019-01-23T15:01:19.363Z,33.20
2019-01-23T15:03:48.004Z,33.00
2019-01-23T15:06:16.549Z,34.33
2019-01-23T15:08:45.134Z,34.43
2019-01-23T15:11:13.850Z,33.63
2019-01-23T15:13:42.469Z,34.70
2019-01-23T15:16:11.033Z,32.63
2019-01-23T15:18:39.606Z,34.53
2019-01-23T15:21:08.184Z,35.43
2019-01-23T15:23:36.786Z,33.53
2019-01-23T15:26:05.350Z,34.37
2019-01-23T15:28:33.915Z,34.20
2019-01-23T15:31:02.552Z,34.17
2019-01-23T15:33:31.247Z,32.77
2019-01-23T15:35:59.955Z,35.00
2019-01-23T15:38:29.227Z,34.83
2019-01-23T15:40:57.919Z,34.57
2019-01-23T15:43:26.554Z,36.10
2019-01-23T15:45:55.361Z,34.43
2019-01-23T15:48:24.222Z,35.63
2019-01-23T15:50:53.091Z,35.03
2019-01-23T15:53:22.175Z,34.23
2019-01-23T15:55:50.920Z,34.83
2019-01-23T15:58:19.630Z,36.57
2019-01-23T16:00:48.370Z,35.13
2019-01-23T16:03:16.989Z,34.23
2019-01-23T16:05:45.572Z,35.93
2019-01-23T16:08:14.239Z,36.33
2019-01-23T16:10:42.891Z,36.30
2019-01-23T16:13:11.573Z,35.20
2019-01-23T16:15:40.281Z,35.50
2019-01-23T16:18:08.886Z,35.30
2019-01-23T16:20:37.487Z,34.50
2019-01-23T16:23:06.144Z,35.07
2019-01-23T16:25:34.904Z,34.03
2019-01-23T16:28:03.504Z,35.93
2019-01-23T16:30:33.644Z,34.53
2019-01-23T16:33:02.334Z,35.57
2019-01-23T16:35:30.961Z,37.50
2019-01-23T16:37:59.660Z,35.97
2019-01-23T16:40:28.257Z,35.53
2019-01-23T16:42:56.893Z,34.43
2019-01-23T16:45:25.479Z,34.23
2019-01-23T16:47:54.106Z,37.00
2019-01-23T16:50:22.987Z,34.50
2019-01-23T16:52:51.601Z,34.23
2019-01-23T16:55:20.252Z,35.73
2019-01-23T16:57:48.834Z,35.63
2019-01-23T17:00:18.279Z,35.63
2019-01-23T17:02:47.804Z,37.13
2019-01-23T17:05:17.583Z,36.50
2019-01-23T17:07:46.181Z,35.70
2019-01-23T17:10:15.702Z,36.23
2019-01-23T17:12:44.463Z,33.20
2019-01-23T17:15:13.061Z,34.97
2019-01-23T17:17:41.623Z,35.33
2019-01-23T17:20:12.777Z,35.50
2019-01-23T17:22:41.406Z,37.10
2019-01-23T17:25:10.298Z,35.63
2019-01-23T17:27:38.864Z,36.27
2019-01-23T17:30:07.563Z,34.70
2019-01-23T17:32:36.131Z,36.17
2019-01-23T17:35:05.489Z,34.33
2019-01-23T17:37:34.108Z,35.90
2019-01-23T17:40:02.695Z,37.10
2019-01-23T17:42:31.284Z,34.53
2019-01-23T17:44:59.879Z,33.97
2019-01-23T17:47:28.493Z,33.10
2019-01-23T17:49:57.057Z,32.30
2019-01-23T17:52:25.646Z,30.43
2019-01-23T17:54:54.250Z,29.00
2019-01-23T17:57:22.802Z,31.27
2019-01-23T17:59:51.426Z,30.27
2019-01-23T18:02:20.503Z,28.40
2019-01-23T18:04:49.598Z,27.13
2019-01-23T18:07:18.241Z,26.90
2019-01-23T18:09:46.809Z,28.10
2019-01-23T18:12:15.424Z,28.73
2019-01-23T18:14:48.985Z,27.23
2019-01-23T18:17:14.347Z,24.87
2019-01-23T18:19:42.903Z,26.07
2019-01-23T18:22:11.494Z,25.23
2019-01-23T18:24:40.049Z,24.70
2019-01-23T18:27:08.620Z,23.90
2019-01-23T18:29:37.311Z,23.00
2019-01-23T18:32:07.607Z,22.27
2019-01-23T18:34:55.379Z,23.57
2019-01-23T18:37:54.830Z,24.00
2019-01-23T18:40:57.543Z,23.17
2019-01-23T18:43:47.284Z,23.80
2019-01-23T18:46:40.567Z,23.97
2019-01-23T18:49:39.948Z,24.83
2019-01-23T18:52:12.086Z,25.57
2019-01-23T18:54:40.677Z,26.70
2019-01-23T18:57:10.706Z,26.23
2019-01-23T18:59:39.356Z,24.30
2019-01-23T19:02:07.916Z,26.77
2019-01-23T19:04:36.507Z,26.53
2019-01-23T19:07:05.087Z,27.27
2019-01-23T19:09:33.702Z,27.57
2019-01-23T19:12:02.279Z,28.97
2019-01-23T19:14:30.841Z,27.03
2019-01-23T19:16:59.431Z,24.77
2019-01-23T19:19:28.022Z,25.40
2019-01-23T19:21:56.574Z,25.57
2019-01-23T19:24:25.114Z,25.90
2019-01-23T19:26:53.751Z,22.30
2019-01-23T19:29:22.301Z,22.87
2019-01-23T19:31:50.855Z,23.83
2019-01-23T19:34:19.468Z,23.97
2019-01-23T19:36:48.041Z,22.37
2019-01-23T19:39:16.590Z,22.07
2019-01-23T19:41:45.186Z,23.30
2019-01-23T19:44:13.758Z,20.77
2019-01-23T19:46:42.591Z,25.37
2019-01-23T19:49:11.229Z,24.50
2019-01-23T19:51:39.881Z,26.00
2019-01-23T19:54:08.511Z,24.50
2019-01-23T19:56:37.084Z,24.63
2019-01-23T19:59:05.643Z,23.37
2019-01-23T20:01:34.204Z,26.00
2019-01-23T20:04:02.815Z,25.17
2019-01-23T20:06:31.415Z,26.47
2019-01-23T20:08:59.979Z,27.73
2019-01-23T20:11:28.593Z,26.57
2019-01-23T20:13:57.164Z,26.10
2019-01-23T20:16:25.735Z,26.43
2019-01-23T20:18:54.310Z,25.73
2019-01-23T20:21:22.906Z,27.70
2019-01-23T20:23:51.639Z,27.03
2019-01-23T20:26:20.189Z,26.13
2019-01-23T20:28:48.774Z,27.03
2019-01-23T20:31:17.391Z,25.53
2019-01-23T20:33:45.967Z,26.37
2019-01-23T20:36:14.534Z,25.13
2019-01-23T20:38:43.132Z,26.43
2019-01-23T20:41:11.702Z,25.53
2019-01-23T20:43:40.269Z,26.30
2019-01-23T20:46:08.874Z,23.57
2019-01-23T20:48:37.442Z,25.13
2019-01-23T20:51:06.022Z,22.10
2019-01-23T20:53:34.616Z,24.50
2019-01-23T20:56:03.216Z,24.73
2019-01-23T20:58:31.787Z,25.23
2019-01-23T21:01:00.467Z,23.83
2019-01-23T21:03:34.845Z,23.47
2019-01-23T21:05:59.447Z,24.63
2019-01-23T21:08:28.036Z,23.67
2019-01-23T21:10:56.616Z,25.30
2019-01-23T21:13:25.231Z,24.00
2019-01-23T21:15:53.827Z,23.67
2019-01-23T21:18:22.442Z,23.00
2019-01-23T21:20:51.015Z,24.53
2019-01-23T21:23:19.576Z,24.57
2019-01-23T21:25:48.164Z,26.50
2019-01-23T21:28:16.746Z,24.93
2019-01-23T21:30:45.302Z,28.03
2019-01-23T21:33:13.879Z,26.37
2019-01-23T21:35:42.448Z,27.53
2019-01-23T21:38:11.005Z,26.00
2019-01-23T21:40:39.596Z,25.67
2019-01-23T21:43:08.152Z,27.47
2019-01-23T21:45:37.384Z,28.10
2019-01-23T21:48:06.187Z,26.10
2019-01-23T21:50:34.756Z,25.97
2019-01-23T21:53:03.305Z,26.03
2019-01-23T21:55:31.896Z,26.87
2019-01-23T21:58:00.446Z,27.30
2019-01-23T22:00:30.601Z,26.73
2019-01-23T22:02:59.374Z,27.77
2019-01-23T22:05:27.949Z,26.83
2019-01-23T22:07:56.505Z,27.03
2019-01-23T22:10:25.081Z,25.87
2019-01-23T22:12:53.662Z,24.57
2019-01-23T22:15:23.779Z,26.57
2019-01-23T22:17:52.332Z,25.33
2019-01-23T22:20:20.910Z,26.17
2019-01-23T22:22:49.498Z,25.20
2019-01-23T22:25:18.994Z,24.43
2019-01-23T22:27:48.579Z,24.67
2019-01-23T22:30:18.221Z,24.80
2019-01-23T22:32:46.810Z,24.23
2019-01-23T22:35:15.371Z,25.13
2019-01-23T22:37:43.940Z,25.57
2019-01-23T22:40:12.748Z,24.50
2019-01-23T22:42:41.346Z,24.13
2019-01-23T22:45:10.986Z,27.03
2019-01-23T22:47:39.545Z,26.10
2019-01-23T22:50:09.475Z,27.53
2019-01-23T22:52:38.160Z,28.47
2019-01-23T22:55:07.764Z,27.20
2019-01-23T22:57:36.321Z,26.10
2019-01-23T23:00:06.875Z,27.70
2019-01-23T23:02:35.430Z,27.40
2019-01-23T23:05:03.989Z,27.17
2019-01-23T23:07:32.592Z,28.67
2019-01-23T23:10:01.155Z,27.97
2019-01-23T23:12:29.779Z,26.77
2019-01-23T23:14:58.334Z,28.10
2019-01-23T23:17:27.437Z,26.57
2019-01-23T23:19:56.051Z,28.93
2019-01-23T23:22:24.603Z,28.83
2019-01-23T23:24:53.156Z,31.17
2019-01-23T23:27:21.765Z,28.00
2019-01-23T23:29:50.235Z,29.63
2019-01-23T23:32:18.829Z,28.77
2019-01-23T23:34:47.394Z,28.97
2019-01-23T23:37:15.941Z,29.53
2019-01-23T23:39:44.445Z,28.13
2019-01-23T23:42:13.001Z,28.53
2019-01-23T23:44:42.066Z,27.57
2019-01-23T23:47:11.274Z,27.50
2019-01-23T23:49:40.343Z,28.90
2019-01-23T23:52:09.331Z,29.13
2019-01-23T23:54:38.420Z,29.60
2019-01-23T23:57:07.509Z,29.47
2019-01-23T23:59:36.612Z,29.83
